Time;durP1;ratioP1;P1;durP2;ratioP2;P2;SDS_P1;SDS_P2;PMS_P1;PMS_P2;Temp;Humidity;BMP_temperature;BMP_pressure;BME280_temperature;BME280_humidity;BME280_pressure;Samples;Min_cycle;Max_cycle;Signal;HPM_P1;HPM_P2
2021/04/03 00:00:18;;;;;;;8.27;4.43;;;7.30;81.00;;;;;;5093880;28;20211;-63
2021/04/03 00:02:44;;;;;;;7.77;4.50;;;7.30;80.30;;;;;;5093845;28;20261;-61
2021/04/03 00:05:14;;;;;;;12.27;4.90;;;7.40;80.40;;;;;;5093483;28;20232;-62
2021/04/03 00:07:40;;;;;;;10.23;5.30;;;7.50;80.30;;;;;;5093332;28;20208;-61
2021/04/03 00:10:09;;;;;;;9.10;5.10;;;7.60;79.90;;;;;;5093379;28;20204;-61
2021/04/03 00:12:36;;;;;;;8.70;4.73;;;7.70;79.30;;;;;;5093284;28;20208;-62
2021/04/03 00:15:03;;;;;;;8.73;5.00;;;7.80;79.10;;;;;;5093253;28;20289;-62
2021/04/03 00:17:30;;;;;;;11.87;5.10;;;7.80;79.00;;;;;;5093298;28;20212;-62
2021/04/03 00:19:56;;;;;;;9.60;5.03;;;7.90;78.60;;;;;;5093017;28;20204;-62
2021/04/03 00:22:23;;;;;;;9.47;5.13;;;7.80;79.70;;;;;;5093117;28;20204;-62
2021/04/03 00:24:49;;;;;;;10.70;5.30;;;7.80;79.00;;;;;;5092902;28;20228;-61
2021/04/03 00:27:15;;;;;;;9.93;5.13;;;7.70;78.90;;;;;;5093364;28;20215;-62
2021/04/03 00:29:41;;;;;;;6.63;5.13;;;7.80;78.80;;;;;;5093043;28;20230;-62
2021/04/03 00:32:08;;;;;;;8.57;5.17;;;7.70;79.10;;;;;;5092921;28;20211;-62
2021/04/03 00:34:35;;;;;;;9.73;5.53;;;7.80;79.00;;;;;;5092798;28;20208;-61
2021/04/03 00:37:02;;;;;;;11.70;5.57;;;7.90;78.60;;;;;;5092722;28;20204;-62
2021/04/03 00:39:28;;;;;;;10.10;4.70;;;7.90;78.10;;;;;;5092547;28;20626;-62
2021/04/03 00:41:54;;;;;;;10.90;5.17;;;8.00;78.00;;;;;;5093180;28;20615;-62
2021/04/03 00:44:20;;;;;;;10.67;5.70;;;7.80;78.00;;;;;;5092940;28;20246;-61
2021/04/03 00:46:47;;;;;;;6.70;4.90;;;7.60;78.80;;;;;;5092962;28;20580;-60
2021/04/03 00:49:13;;;;;;;9.60;5.47;;;7.70;78.70;;;;;;5092617;28;20202;-61
2021/04/03 00:51:41;;;;;;;10.77;5.17;;;7.80;78.60;;;;;;5092927;28;20200;-60
2021/04/03 00:54:08;;;;;;;6.90;4.80;;;7.80;78.00;;;;;;5092591;28;20200;-61
2021/04/03 00:56:35;;;;;;;10.77;5.30;;;7.70;77.70;;;;;;5092600;28;20232;-62
2021/04/03 00:59:02;;;;;;;11.63;5.10;;;7.70;77.70;;;;;;5092771;28;20220;-62
2021/04/03 01:01:28;;;;;;;9.77;5.13;;;7.80;77.50;;;;;;5092930;28;20208;-62
2021/04/03 01:03:54;;;;;;;10.07;5.27;;;7.80;77.30;;;;;;5091626;28;20204;-62
2021/04/03 01:06:20;;;;;;;9.10;4.73;;;7.70;77.70;;;;;;5092484;28;20703;-62
2021/04/03 01:08:47;;;;;;;6.63;4.57;;;7.70;77.90;;;;;;5092176;28;20200;-62
2021/04/03 01:11:14;;;;;;;7.20;5.10;;;7.90;77.70;;;;;;5092339;28;20212;-61
2021/04/03 01:14:05;;;;;;;10.53;5.27;;;7.90;77.50;;;;;;5092313;28;20208;-61
2021/04/03 01:16:38;;;;;;;49.80;37.90;;;7.90;77.50;;;;;;5091790;28;20708;-61
2021/04/03 01:19:39;;;;;;;11.60;6.27;;;8.00;77.10;;;;;;5091638;28;20254;-62
2021/04/03 01:22:37;;;;;;;8.23;4.57;;;8.00;76.80;;;;;;5091751;28;20740;-61
2021/04/03 01:25:17;;;;;;;9.73;5.57;;;8.20;76.20;;;;;;5091660;28;20235;-62
2021/04/03 01:27:57;;;;;;;8.87;4.87;;;8.30;75.80;;;;;;5091875;28;20212;-61
2021/04/03 01:30:27;;;;;;;5.50;4.20;;;8.10;76.20;;;;;;5091872;28;20261;-62
2021/04/03 01:33:00;;;;;;;9.37;4.87;;;8.00;76.20;;;;;;5091654;28;20220;-61
2021/04/03 01:35:31;;;;;;;11.50;4.67;;;8.10;76.00;;;;;;5091433;28;20220;-60
2021/04/03 01:38:01;;;;;;;8.23;4.40;;;8.20;75.90;;;;;;5091373;28;20619;-62
2021/04/03 01:40:28;;;;;;;8.57;4.43;;;8.30;75.90;;;;;;5091672;28;20205;-61
2021/04/03 01:43:02;;;;;;;7.40;4.47;;;8.30;75.80;;;;;;5091458;28;20618;-61
2021/04/03 01:45:30;;;;;;;13.10;4.90;;;8.30;75.80;;;;;;5091555;28;20703;-61
2021/04/03 01:47:57;;;;;;;9.17;4.90;;;8.30;75.80;;;;;;5091518;28;20204;-61
2021/04/03 01:50:25;;;;;;;8.73;4.83;;;8.30;76.00;;;;;;5091367;28;20208;-62
2021/04/03 01:52:51;;;;;;;6.53;4.70;;;8.30;76.10;;;;;;5091525;28;20208;-61
2021/04/03 01:55:18;;;;;;;8.67;4.43;;;8.30;75.80;;;;;;5091131;28;20228;-62
2021/04/03 01:57:48;;;;;;;8.97;4.70;;;8.40;75.90;;;;;;5091208;28;20581;-60
2021/04/03 02:00:18;;;;;;;9.23;4.17;;;8.50;75.90;;;;;;5091671;28;20208;-61
2021/04/03 02:02:46;;;;;;;8.10;4.53;;;8.50;75.30;;;;;;5091014;28;20254;-60
2021/04/03 02:05:13;;;;;;;8.23;4.40;;;8.40;75.10;;;;;;5091210;28;20235;-61
2021/04/03 02:07:41;;;;;;;9.30;4.47;;;8.40;75.00;;;;;;5091306;28;20228;-62
2021/04/03 02:10:10;;;;;;;6.53;4.43;;;8.30;75.00;;;;;;5091162;28;20200;-62
2021/04/03 02:12:38;;;;;;;7.93;4.60;;;8.40;75.20;;;;;;5091154;28;20679;-62
2021/04/03 02:15:07;;;;;;;9.03;4.77;;;8.40;75.40;;;;;;5091252;28;20266;-62
2021/04/03 02:17:35;;;;;;;8.90;4.47;;;8.40;75.90;;;;;;5091121;28;20580;-59
2021/04/03 02:20:05;;;;;;;7.87;5.07;;;8.30;75.80;;;;;;5091292;28;20725;-62
2021/04/03 02:22:32;;;;;;;6.93;4.97;;;8.30;76.30;;;;;;5091378;28;20204;-61
2021/04/03 02:24:58;;;;;;;10.00;4.83;;;8.20;76.50;;;;;;5091033;28;20252;-62
2021/04/03 02:27:24;;;;;;;9.00;4.80;;;8.30;76.70;;;;;;5091566;28;20211;-62
2021/04/03 02:29:51;;;;;;;6.10;4.53;;;8.20;76.80;;;;;;5090860;28;20574;-62
2021/04/03 02:32:18;;;;;;;8.50;4.53;;;8.20;76.90;;;;;;5091103;28;20204;-62
2021/04/03 02:34:44;;;;;;;10.07;4.73;;;8.20;76.90;;;;;;5090816;28;20228;-62
2021/04/03 02:37:11;;;;;;;9.07;4.57;;;8.20;77.00;;;;;;5091212;28;20242;-62
2021/04/03 02:39:38;;;;;;;12.40;4.97;;;8.20;76.90;;;;;;5090686;28;20273;-61
2021/04/03 02:42:08;;;;;;;9.10;4.60;;;8.10;76.90;;;;;;5090704;28;20208;-62
2021/04/03 02:44:38;;;;;;;7.03;4.10;;;8.10;77.00;;;;;;5090395;28;20215;-62
2021/04/03 02:47:12;;;;;;;8.87;4.57;;;8.00;76.90;;;;;;5090762;28;20204;-62
2021/04/03 02:49:41;;;;;;;8.90;4.93;;;7.90;77.00;;;;;;5090968;28;20205;-61
2021/04/03 02:52:09;;;;;;;9.90;5.17;;;7.80;77.40;;;;;;5090866;28;20204;-61
2021/04/03 02:54:42;;;;;;;8.83;4.57;;;7.70;77.60;;;;;;5090973;28;20227;-60
2021/04/03 02:57:12;;;;;;;8.67;5.07;;;7.60;77.90;;;;;;5090589;28;20615;-59
2021/04/03 02:59:43;;;;;;;7.10;4.43;;;7.60;77.90;;;;;;5090692;28;20232;-58
2021/04/03 03:02:10;;;;;;;7.37;4.90;;;7.60;78.10;;;;;;5090914;28;20212;-59
2021/04/03 03:04:38;;;;;;;13.20;5.20;;;7.70;78.00;;;;;;5090448;28;20200;-61
2021/04/03 03:07:04;;;;;;;6.10;4.37;;;7.80;77.90;;;;;;5090886;28;20236;-58
2021/04/03 03:09:31;;;;;;;9.83;5.17;;;7.80;77.60;;;;;;5090473;28;20204;-58
2021/04/03 03:11:59;;;;;;;8.33;5.30;;;7.90;77.70;;;;;;5090465;28;20581;-60
2021/04/03 03:14:27;;;;;;;6.27;4.33;;;7.90;77.60;;;;;;5090365;28;20207;-61
2021/04/03 03:16:55;;;;;;;7.93;4.20;;;8.00;77.00;;;;;;5090427;28;20702;-58
2021/04/03 03:19:22;;;;;;;7.33;4.60;;;7.90;76.70;;;;;;5090332;28;20250;-59
2021/04/03 03:21:50;;;;;;;6.97;4.40;;;7.80;77.10;;;;;;5090589;28;20207;-58
2021/04/03 03:24:17;;;;;;;9.63;5.00;;;7.80;77.50;;;;;;5090101;28;20211;-60
2021/04/03 03:26:43;;;;;;;5.73;4.10;;;7.80;77.70;;;;;;5091780;28;20235;-58
2021/04/03 03:29:12;;;;;;;8.23;4.60;;;7.80;77.40;;;;;;5094169;28;20200;-59
2021/04/03 03:31:40;;;;;;;11.90;4.87;;;7.70;77.20;;;;;;5094133;28;20236;-58
2021/04/03 03:34:06;;;;;;;6.27;4.30;;;7.70;77.70;;;;;;5093784;28;20819;-59
2021/04/03 03:36:35;;;;;;;10.40;4.57;;;7.60;77.70;;;;;;5093833;28;20224;-59
2021/04/03 03:39:03;;;;;;;9.97;5.00;;;7.60;77.60;;;;;;5093741;28;20700;-59
2021/04/03 03:41:30;;;;;;;7.53;4.83;;;7.60;77.60;;;;;;5094070;28;20208;-59
2021/04/03 03:43:56;;;;;;;8.20;4.93;;;7.60;77.70;;;;;;5093882;28;20267;-59
2021/04/03 03:46:23;;;;;;;7.83;4.77;;;7.60;77.80;;;;;;5093763;28;20224;-60
2021/04/03 03:48:50;;;;;;;7.70;5.10;;;7.50;77.80;;;;;;5093767;28;20211;-60
2021/04/03 03:51:16;;;;;;;10.23;4.80;;;7.40;77.70;;;;;;5093640;28;20204;-59
2021/04/03 03:53:42;;;;;;;8.93;4.77;;;7.40;78.20;;;;;;5093751;28;20211;-60
2021/04/03 03:56:08;;;;;;;9.60;5.30;;;7.40;78.40;;;;;;5093528;28;20669;-59
2021/04/03 03:58:34;;;;;;;8.43;4.90;;;7.40;78.60;;;;;;5093524;28;20235;-59
2021/04/03 04:01:00;;;;;;;6.77;4.53;;;7.50;79.00;;;;;;5093558;28;20699;-59
2021/04/03 04:03:28;;;;;;;10.33;5.43;;;7.60;79.00;;;;;;5093398;28;20215;-59
2021/04/03 04:05:54;;;;;;;9.30;5.10;;;7.60;79.20;;;;;;5093266;28;20255;-60
2021/04/03 04:08:20;;;;;;;7.67;4.57;;;7.70;78.90;;;;;;5093453;28;20246;-60
2021/04/03 04:10:47;;;;;;;9.77;4.60;;;7.70;78.60;;;;;;5093371;28;20303;-60
2021/04/03 04:13:13;;;;;;;6.63;4.27;;;7.80;78.10;;;;;;5093375;28;20208;-59
2021/04/03 04:15:39;;;;;;;10.23;4.23;;;7.80;78.00;;;;;;5093004;28;20277;-60
2021/04/03 04:18:05;;;;;;;7.57;4.40;;;7.80;77.70;;;;;;5092940;28;20208;-60
2021/04/03 04:20:33;;;;;;;8.40;4.50;;;7.80;77.50;;;;;;5093306;28;20204;-59
2021/04/03 04:22:59;;;;;;;8.63;4.47;;;7.80;77.30;;;;;;5093203;28;20201;-60
2021/04/03 04:25:26;;;;;;;6.33;3.63;;;7.80;77.20;;;;;;5092922;28;20224;-59
2021/04/03 04:27:52;;;;;;;9.13;4.27;;;7.80;77.40;;;;;;5092828;28;20583;-59
2021/04/03 04:30:19;;;;;;;8.57;4.10;;;7.80;77.20;;;;;;5092998;28;20207;-60
2021/04/03 04:32:46;;;;;;;8.03;4.37;;;7.90;77.50;;;;;;5092707;28;20691;-59
2021/04/03 04:35:13;;;;;;;6.73;4.00;;;7.80;77.50;;;;;;5092651;28;20719;-60
2021/04/03 04:37:41;;;;;;;11.03;4.70;;;7.80;77.50;;;;;;5092239;28;20215;-60
2021/04/03 04:40:09;;;;;;;9.97;5.03;;;7.80;77.40;;;;;;5092573;28;20224;-59
2021/04/03 04:42:35;;;;;;;9.53;4.17;;;7.70;77.70;;;;;;5092702;28;20579;-59
2021/04/03 04:45:02;;;;;;;8.83;5.07;;;7.70;78.00;;;;;;5092507;28;20731;-60
2021/04/03 04:47:28;;;;;;;7.73;4.43;;;7.70;78.20;;;;;;5092550;28;20668;-60
2021/04/03 04:49:54;;;;;;;10.27;4.73;;;7.80;78.50;;;;;;5092710;28;20204;-60
2021/04/03 04:52:20;;;;;;;8.50;4.07;;;7.90;78.40;;;;;;5092600;28;20257;-60
2021/04/03 04:54:47;;;;;;;6.23;4.37;;;7.90;78.10;;;;;;5092692;28;20227;-59
2021/04/03 04:57:14;;;;;;;6.63;4.13;;;8.00;77.90;;;;;;5092244;28;20223;-60
2021/04/03 04:59:40;;;;;;;9.47;4.30;;;8.00;77.60;;;;;;5092671;28;20224;-60
2021/04/03 05:02:06;;;;;;;8.03;4.13;;;8.00;77.60;;;;;;5092169;28;20204;-60
2021/04/03 05:04:32;;;;;;;7.43;3.60;;;8.00;77.80;;;;;;5092269;28;20684;-60
2021/04/03 05:06:58;;;;;;;8.77;4.60;;;8.00;77.60;;;;;;5092521;28;20211;-60
2021/04/03 05:09:25;;;;;;;7.67;4.37;;;8.00;77.60;;;;;;5092050;28;20200;-60
2021/04/03 05:11:52;;;;;;;8.73;4.20;;;8.10;77.90;;;;;;5092093;28;20211;-60
2021/04/03 05:14:18;;;;;;;8.83;4.27;;;8.10;78.00;;;;;;5091907;28;20208;-59
2021/04/03 05:16:44;;;;;;;9.00;4.43;;;8.10;78.00;;;;;;5091929;28;20262;-60
2021/04/03 05:19:10;;;;;;;10.73;4.40;;;8.20;78.00;;;;;;5091682;28;20734;-60
2021/04/03 05:21:36;;;;;;;9.17;3.83;;;8.20;78.00;;;;;;5092008;28;20204;-60
2021/04/03 05:24:03;;;;;;;10.77;4.57;;;8.30;78.00;;;;;;5091851;28;20211;-60
2021/04/03 05:26:29;;;;;;;6.50;3.63;;;8.40;77.90;;;;;;5091755;28;20265;-60
2021/04/03 05:28:56;;;;;;;6.47;3.73;;;8.40;77.70;;;;;;5091714;28;20204;-60
2021/04/03 05:31:22;;;;;;;7.90;4.27;;;8.40;77.30;;;;;;5091663;28;20215;-60
2021/04/03 05:33:49;;;;;;;6.80;4.07;;;8.20;77.50;;;;;;5091840;28;20244;-60
2021/04/03 05:36:15;;;;;;;12.30;4.07;;;7.90;78.10;;;;;;5091749;28;20302;-59
2021/04/03 05:38:42;;;;;;;8.03;3.80;;;7.60;78.80;;;;;;5091519;28;20220;-60
2021/04/03 05:41:09;;;;;;;7.43;4.07;;;7.50;79.30;;;;;;5091623;28;20213;-60
2021/04/03 05:43:36;;;;;;;7.27;3.73;;;7.50;79.40;;;;;;5091391;28;20212;-59
2021/04/03 05:46:04;;;;;;;10.17;5.10;;;7.50;79.50;;;;;;5091713;28;20228;-60
2021/04/03 05:48:31;;;;;;;8.87;4.50;;;7.40;79.70;;;;;;5091703;28;20249;-61
2021/04/03 05:51:00;;;;;;;8.30;4.20;;;7.60;79.90;;;;;;5091027;28;20580;-59
2021/04/03 05:53:26;;;;;;;6.73;3.90;;;7.60;79.90;;;;;;5091173;28;20211;-59
2021/04/03 05:55:53;;;;;;;6.17;3.90;;;8.10;79.80;;;;;;5091215;28;20236;-60
2021/04/03 05:58:19;;;;;;;9.07;4.03;;;9.50;77.90;;;;;;5091120;28;20231;-61
2021/04/03 06:00:46;;;;;;;7.50;3.90;;;11.10;72.40;;;;;;5091444;28;20204;-58
2021/04/03 06:03:14;;;;;;;5.40;3.23;;;12.50;68.70;;;;;;5091708;28;20215;-59
2021/04/03 06:05:41;;;;;;;9.37;3.43;;;13.60;63.60;;;;;;5091154;28;20726;-59
2021/04/03 06:08:08;;;;;;;6.67;3.43;;;14.50;61.80;;;;;;5091446;28;20204;-59
2021/04/03 06:10:34;;;;;;;6.63;3.07;;;15.30;59.00;;;;;;5091120;28;20220;-60
2021/04/03 06:13:00;;;;;;;4.53;2.90;;;16.00;57.10;;;;;;5091541;28;20667;-60
2021/04/03 06:15:36;;;;;;;7.93;3.50;;;16.20;56.10;;;;;;5091203;28;20228;-59
2021/04/03 06:18:08;;;;;;;9.23;3.90;;;16.50;56.00;;;;;;5091044;28;20204;-59
2021/04/03 06:20:37;;;;;;;7.70;3.47;;;17.20;54.50;;;;;;5091066;28;20560;-60
2021/04/03 06:23:05;;;;;;;8.93;4.23;;;17.90;53.30;;;;;;5090972;28;20223;-60
2021/04/03 06:25:32;;;;;;;7.00;3.83;;;18.60;51.70;;;;;;5090690;28;20742;-60
2021/04/03 06:28:07;;;;;;;6.32;2.90;;;19.50;50.40;;;;;;5091139;28;20203;-60
2021/04/03 06:30:35;;;;;;;5.72;3.20;;;20.10;48.30;;;;;;5091136;28;20253;-59
2021/04/03 06:33:15;;;;;;;6.28;3.35;;;20.30;48.10;;;;;;5091182;28;20269;-59
2021/04/03 06:35:43;;;;;;;4.30;2.78;;;20.70;47.40;;;;;;5091181;28;20727;-58
2021/04/03 06:38:20;;;;;;;5.10;2.95;;;21.20;46.90;;;;;;5091041;28;20204;-59
2021/04/03 06:40:46;;;;;;;5.97;2.92;;;21.50;45.40;;;;;;5091122;28;20584;-59
2021/04/03 06:43:16;;;;;;;3.53;2.42;;;21.10;44.70;;;;;;5091216;28;20245;-59
2021/04/03 06:45:44;;;;;;;6.18;2.95;;;21.00;45.20;;;;;;5090900;28;20258;-59
2021/04/03 06:48:11;;;;;;;3.85;2.33;;;21.30;44.80;;;;;;5090994;28;20204;-59
2021/04/03 06:50:39;;;;;;;4.95;2.25;;;21.40;44.00;;;;;;5091137;28;20204;-59
2021/04/03 06:53:08;;;;;;;4.82;2.53;;;21.60;44.10;;;;;;5090774;28;20240;-60
2021/04/03 06:55:36;;;;;;;6.15;2.58;;;21.50;44.30;;;;;;5090739;28;20245;-59
2021/04/03 06:58:05;;;;;;;4.18;2.40;;;21.10;45.10;;;;;;5091163;28;20276;-60
2021/04/03 07:00:33;;;;;;;4.47;2.28;;;21.30;44.20;;;;;;5091037;28;20331;-60
2021/04/03 07:03:01;;;;;;;3.28;2.20;;;21.70;43.10;;;;;;5094116;28;20711;-59
2021/04/03 07:05:32;;;;;;;5.78;1.98;;;21.50;43.60;;;;;;5094542;28;20219;-60
2021/04/03 07:08:01;;;;;;;7.05;2.22;;;21.40;43.60;;;;;;5094626;28;20213;-60
2021/04/03 07:10:28;;;;;;;4.05;1.85;;;21.70;43.10;;;;;;5094643;28;20211;-60
2021/04/03 07:12:56;;;;;;;2.78;1.90;;;21.50;42.60;;;;;;5094601;28;20208;-60
2021/04/03 07:15:23;;;;;;;4.40;1.80;;;21.30;42.50;;;;;;5094152;28;20607;-59
2021/04/03 07:17:51;;;;;;;3.83;1.80;;;20.40;43.40;;;;;;5094677;28;20208;-59
2021/04/03 07:20:18;;;;;;;3.63;1.92;;;19.80;44.60;;;;;;5094546;28;20228;-59
2021/04/03 07:22:47;;;;;;;3.80;1.80;;;19.90;44.90;;;;;;5094454;28;20216;-59
2021/04/03 07:25:13;;;;;;;4.45;2.10;;;19.70;44.80;;;;;;5094337;28;20274;-59
2021/04/03 07:27:43;;;;;;;3.83;2.00;;;19.10;45.60;;;;;;5094087;28;20213;-59
2021/04/03 07:30:10;;;;;;;5.82;2.15;;;18.20;46.80;;;;;;5094007;28;20823;-60
2021/04/03 07:32:39;;;;;;;4.60;2.37;;;17.90;47.20;;;;;;5093990;28;20236;-59
2021/04/03 07:35:16;;;;;;;4.07;2.03;;;18.00;47.70;;;;;;5093843;28;20277;-57
2021/04/03 07:37:44;;;;;;;4.50;2.23;;;18.20;48.60;;;;;;5093966;28;20207;-58
2021/04/03 07:40:15;;;;;;;4.37;2.07;;;18.20;49.20;;;;;;5093996;28;20224;-59
2021/04/03 07:42:42;;;;;;;4.43;2.13;;;17.90;49.10;;;;;;5094060;28;20208;-57
2021/04/03 07:45:41;;;;;;;3.43;2.10;;;16.90;51.10;;;;;;5093741;28;20220;-58
2021/04/03 07:48:11;;;;;;;7.03;2.20;;;15.80;50.10;;;;;;5094281;28;20622;-56
2021/04/03 07:50:51;;;;;;;6.10;2.27;;;14.80;52.50;;;;;;5094019;28;20241;-59
2021/04/03 07:53:33;;;;;;;5.00;2.07;;;14.70;53.40;;;;;;5093666;28;20693;-58
2021/04/03 07:56:00;;;;;;;4.33;2.47;;;15.30;54.00;;;;;;5093237;28;20691;-57
2021/04/03 07:58:29;;;;;;;5.33;2.43;;;16.50;51.20;;;;;;5093292;28;20226;-57
2021/04/03 08:00:56;;;;;;;4.37;2.10;;;16.70;50.10;;;;;;5093632;28;20213;-60
2021/04/03 08:03:24;;;;;;;5.40;2.30;;;15.80;50.80;;;;;;5093383;28;20214;-62
2021/04/03 08:05:56;;;;;;;3.37;2.13;;;14.00;54.20;;;;;;5093688;28;20677;-58
2021/04/03 08:08:23;;;;;;;4.83;2.00;;;13.20;55.80;;;;;;5093956;28;20335;-58
2021/04/03 08:10:49;;;;;;;5.03;2.27;;;12.90;56.70;;;;;;5093849;28;20640;-60
2021/04/03 08:13:18;;;;;;;5.73;2.20;;;12.90;58.10;;;;;;5093863;28;20208;-58
2021/04/03 08:15:48;;;;;;;8.47;2.50;;;13.00;57.00;;;;;;5093201;28;20228;-60
2021/04/03 08:18:14;;;;;;;5.07;2.10;;;12.80;56.90;;;;;;5093717;28;20230;-58
2021/04/03 08:20:50;;;;;;;7.43;2.60;;;12.50;57.90;;;;;;5093429;28;20625;-58
2021/04/03 08:23:28;;;;;;;4.73;2.73;;;12.10;58.90;;;;;;5093374;28;20233;-56
2021/04/03 08:25:55;;;;;;;5.00;2.30;;;11.80;59.30;;;;;;5093093;28;20261;-57
2021/04/03 08:28:21;;;;;;;3.70;2.17;;;11.50;59.80;;;;;;5093439;28;20369;-56
2021/04/03 08:30:48;;;;;;;5.03;2.70;;;11.40;60.40;;;;;;5093259;28;20215;-58
2021/04/03 08:33:16;;;;;;;6.20;2.27;;;11.40;60.70;;;;;;5093291;28;20208;-59
2021/04/03 08:35:44;;;;;;;3.27;2.40;;;11.20;60.70;;;;;;5093124;28;20239;-58
2021/04/03 08:38:22;;;;;;;6.37;2.63;;;11.20;60.50;;;;;;5093534;28;20204;-58
2021/04/03 08:40:51;;;;;;;5.27;2.90;;;11.40;61.10;;;;;;5093165;28;20250;-57
2021/04/03 08:43:23;;;;;;;4.93;2.23;;;11.50;61.00;;;;;;5092845;28;20204;-56
2021/04/03 08:45:52;;;;;;;4.83;2.50;;;11.60;60.60;;;;;;5092527;28;20228;-62
2021/04/03 08:48:18;;;;;;;6.37;2.40;;;11.70;60.50;;;;;;5092613;28;20216;-57
2021/04/03 08:50:47;;;;;;;5.60;2.00;;;11.80;60.20;;;;;;5092635;28;20277;-60
2021/04/03 08:53:13;;;;;;;6.73;2.60;;;11.70;59.90;;;;;;5092689;28;20204;-58
2021/04/03 08:55:40;;;;;;;3.67;2.13;;;11.40;60.00;;;;;;5108065;22;20225;-63
2021/04/03 08:58:09;;;;;;;6.03;2.30;;;11.20;60.20;;;;;;5072631;28;20219;-64
2021/04/03 09:00:36;;;;;;;5.77;2.63;;;11.10;60.40;;;;;;5072437;28;20224;-63
2021/04/03 09:03:03;;;;;;;4.97;2.23;;;11.00;61.10;;;;;;5072631;28;20205;-62
2021/04/03 09:05:30;;;;;;;4.80;2.50;;;10.90;61.60;;;;;;5072738;28;20228;-63
2021/04/03 09:07:56;;;;;;;4.20;2.20;;;10.90;61.60;;;;;;5072351;28;20205;-63
2021/04/03 09:10:24;;;;;;;3.50;2.03;;;10.60;61.70;;;;;;5072417;28;20201;-63
2021/04/03 09:12:52;;;;;;;4.53;2.30;;;10.20;63.10;;;;;;5072115;28;20240;-63
2021/04/03 09:15:27;;;;;;;4.23;2.30;;;10.10;64.30;;;;;;5071707;28;20225;-66
2021/04/03 09:17:55;;;;;;;6.03;2.30;;;10.00;63.60;;;;;;5071894;28;20746;-63
2021/04/03 09:20:24;;;;;;;4.03;2.00;;;10.10;63.10;;;;;;5072074;28;20231;-63
2021/04/03 09:22:52;;;;;;;5.13;2.23;;;10.40;63.10;;;;;;5071982;28;20207;-63
2021/04/03 09:25:20;;;;;;;5.37;2.33;;;10.70;62.80;;;;;;5071127;28;20256;-64
2021/04/03 09:28:00;;;;;;;5.53;2.37;;;11.00;61.30;;;;;;5071677;28;20680;-64
2021/04/03 09:30:34;;;;;;;3.67;1.80;;;11.10;61.00;;;;;;5071770;28;20528;-64
2021/04/03 09:33:14;;;;;;;3.60;2.30;;;11.10;59.80;;;;;;5071512;28;20208;-66
2021/04/03 09:35:42;;;;;;;6.43;2.30;;;10.90;60.20;;;;;;5071710;28;20233;-66
2021/04/03 09:38:08;;;;;;;4.17;2.30;;;10.70;60.40;;;;;;5071950;28;20237;-64
2021/04/03 09:40:35;;;;;;;5.80;2.40;;;10.80;61.20;;;;;;5071672;28;20229;-64
2021/04/03 09:43:02;;;;;;;6.80;2.10;;;10.70;62.10;;;;;;5071696;28;20209;-64
2021/04/03 09:45:28;;;;;;;4.27;1.93;;;10.70;62.10;;;;;;5071261;28;20607;-64
2021/04/03 09:47:56;;;;;;;5.83;2.20;;;10.80;61.50;;;;;;5071861;28;20229;-64
2021/04/03 09:50:23;;;;;;;7.80;2.40;;;10.70;61.90;;;;;;5071718;28;20231;-64
2021/04/03 09:52:51;;;;;;;3.93;2.27;;;10.70;61.80;;;;;;5071596;28;20212;-65
2021/04/03 09:55:17;;;;;;;9.73;2.70;;;10.80;62.00;;;;;;5071701;28;20239;-64
2021/04/03 09:57:43;;;;;;;5.73;2.30;;;10.70;62.10;;;;;;5071175;28;20204;-65
2021/04/03 10:00:10;;;;;;;6.90;2.43;;;10.50;62.70;;;;;;5071398;28;20702;-67
2021/04/03 10:02:37;;;;;;;4.17;2.43;;;10.40;62.90;;;;;;5071222;28;20618;-63
2021/04/03 10:05:04;;;;;;;5.37;2.37;;;10.20;63.90;;;;;;5071239;28;20570;-63
2021/04/03 10:07:30;;;;;;;4.90;2.57;;;10.10;64.30;;;;;;5071170;28;20205;-63
2021/04/03 10:09:57;;;;;;;5.43;2.80;;;10.20;64.30;;;;;;5071153;28;20201;-63
2021/04/03 10:12:23;;;;;;;5.30;2.90;;;10.40;64.10;;;;;;5071189;28;20599;-64
2021/04/03 10:14:50;;;;;;;5.17;2.47;;;10.50;63.80;;;;;;5071190;28;20201;-64
2021/04/03 10:17:16;;;;;;;5.53;2.60;;;10.70;64.00;;;;;;5071197;28;20212;-64
2021/04/03 10:19:42;;;;;;;4.93;2.10;;;11.10;62.90;;;;;;5070899;28;20224;-64
2021/04/03 10:22:08;;;;;;;6.03;2.27;;;11.30;61.50;;;;;;5070737;28;20677;-64
2021/04/03 10:24:35;;;;;;;3.97;2.40;;;11.60;61.20;;;;;;5071041;28;20215;-64
2021/04/03 10:27:02;;;;;;;4.57;2.30;;;11.90;60.40;;;;;;5071114;28;20720;-65
2021/04/03 10:29:28;;;;;;;4.87;2.10;;;12.00;59.20;;;;;;5071152;28;20267;-65
2021/04/03 10:31:54;;;;;;;5.33;2.00;;;12.00;58.70;;;;;;5071175;28;20201;-64
2021/04/03 10:34:21;;;;;;;6.00;2.70;;;12.30;58.20;;;;;;5071163;28;20575;-64
2021/04/03 10:36:47;;;;;;;4.17;2.30;;;12.50;57.60;;;;;;5074342;28;20484;-64
2021/04/03 10:39:13;;;;;;;4.07;1.93;;;12.50;57.50;;;;;;5075010;28;20228;-66
2021/04/03 10:41:39;;;;;;;5.17;2.30;;;12.50;56.70;;;;;;5075237;28;20204;-65
2021/04/03 10:44:07;;;;;;;6.53;2.53;;;12.70;57.00;;;;;;5075178;28;20223;-64
2021/04/03 10:46:33;;;;;;;4.67;2.70;;;13.20;56.60;;;;;;5074999;28;20278;-64
2021/04/03 10:48:59;;;;;;;4.57;2.30;;;13.60;55.60;;;;;;5074904;28;20212;-64
2021/04/03 10:51:25;;;;;;;5.03;2.50;;;13.80;55.10;;;;;;5075017;28;20212;-64
2021/04/03 10:53:51;;;;;;;6.83;2.40;;;14.00;54.90;;;;;;5075125;28;20224;-64
2021/04/03 10:56:18;;;;;;;5.17;2.50;;;14.30;54.40;;;;;;5074557;28;20232;-64
2021/04/03 10:58:45;;;;;;;5.07;2.63;;;14.80;54.10;;;;;;5074691;28;20692;-65
2021/04/03 11:01:12;;;;;;;4.83;2.00;;;15.00;53.80;;;;;;5074917;28;20639;-65
2021/04/03 11:03:38;;;;;;;4.70;2.33;;;14.80;52.90;;;;;;5074956;28;20466;-65
2021/04/03 11:06:04;;;;;;;5.63;2.63;;;14.60;53.60;;;;;;5074913;28;20225;-64
2021/04/03 11:08:30;;;;;;;4.30;2.43;;;14.60;53.40;;;;;;5074651;28;20353;-68
2021/04/03 11:10:57;;;;;;;3.90;2.13;;;14.40;53.10;;;;;;5074981;28;20205;-66
2021/04/03 11:13:23;;;;;;;5.23;2.30;;;14.10;53.20;;;;;;5074566;28;20675;-66
2021/04/03 11:15:49;;;;;;;4.83;2.40;;;13.60;54.20;;;;;;5074536;28;20232;-65
2021/04/03 11:18:16;;;;;;;4.60;2.23;;;13.40;55.00;;;;;;5074142;28;20216;-65
2021/04/03 11:20:43;;;;;;;5.97;2.40;;;13.00;55.70;;;;;;5074036;28;20228;-66
2021/04/03 11:23:09;;;;;;;4.10;2.17;;;12.80;56.50;;;;;;5074117;28;20672;-64
2021/04/03 11:25:35;;;;;;;6.10;2.00;;;12.90;56.70;;;;;;5074133;28;20228;-64
2021/04/03 11:28:02;;;;;;;4.27;2.03;;;13.40;55.00;;;;;;5073964;28;20224;-67
2021/04/03 11:30:28;;;;;;;4.60;1.87;;;13.70;53.90;;;;;;5073771;28;20656;-64
2021/04/03 11:32:54;;;;;;;2.73;1.70;;;14.20;52.10;;;;;;5074525;28;20588;-64
2021/04/03 11:35:23;;;;;;;5.80;2.07;;;14.50;51.20;;;;;;5073772;28;20236;-64
2021/04/03 11:37:50;;;;;;;5.60;2.23;;;14.90;51.70;;;;;;5073736;28;20212;-65
2021/04/03 11:40:17;;;;;;;2.90;1.80;;;15.30;51.10;;;;;;5073970;28;20236;-65
2021/04/03 11:42:45;;;;;;;4.53;2.30;;;15.40;50.40;;;;;;5073670;28;20742;-64
2021/04/03 11:45:12;;;;;;;4.53;1.90;;;15.30;50.40;;;;;;5073388;28;20233;-65
2021/04/03 11:47:39;;;;;;;4.80;1.97;;;15.10;50.80;;;;;;5073076;28;20208;-68
2021/04/03 11:50:07;;;;;;;2.83;1.80;;;15.10;50.20;;;;;;5073858;28;20665;-66
2021/04/03 11:52:36;;;;;;;4.60;1.80;;;15.10;49.90;;;;;;5073658;28;20220;-65
2021/04/03 11:55:04;;;;;;;8.43;1.90;;;15.10;50.10;;;;;;5073625;28;20229;-65
2021/04/03 11:57:32;;;;;;;5.10;2.10;;;15.00;49.70;;;;;;5073590;28;20193;-65
2021/04/03 11:59:58;;;;;;;5.47;2.07;;;14.80;50.00;;;;;;5073421;28;20224;-65
2021/04/03 12:02:24;;;;;;;3.83;1.87;;;14.70;50.70;;;;;;5073640;28;20209;-64
2021/04/03 12:04:51;;;;;;;4.07;1.90;;;14.60;49.90;;;;;;5073268;28;20239;-65
2021/04/03 12:07:17;;;;;;;5.53;2.00;;;14.40;49.40;;;;;;5073529;28;20209;-64
2021/04/03 12:09:44;;;;;;;4.47;2.10;;;14.40;50.20;;;;;;5073219;28;20197;-66
2021/04/03 12:12:10;;;;;;;5.27;1.73;;;14.60;50.20;;;;;;5073717;28;20591;-65
2021/04/03 12:14:37;;;;;;;4.00;1.90;;;14.80;49.20;;;;;;5073374;28;20209;-64
2021/04/03 12:17:03;;;;;;;4.03;2.10;;;14.80;49.50;;;;;;5073716;28;20212;-64
2021/04/03 12:19:30;;;;;;;5.10;2.03;;;14.60;49.80;;;;;;5073056;28;20220;-68
2021/04/03 12:21:56;;;;;;;3.37;1.83;;;14.30;49.40;;;;;;5073564;28;20586;-66
2021/04/03 12:24:22;;;;;;;4.30;1.90;;;14.00;49.70;;;;;;5072994;28;20209;-65
2021/04/03 12:26:49;;;;;;;4.37;2.10;;;13.60;51.10;;;;;;5073275;28;20232;-65
2021/04/03 12:29:15;;;;;;;5.10;1.87;;;13.50;50.80;;;;;;5072880;28;20209;-64
2021/04/03 12:31:41;;;;;;;2.90;1.97;;;13.40;50.70;;;;;;5072874;28;20208;-65
2021/04/03 12:34:07;;;;;;;5.37;2.67;;;13.10;50.90;;;;;;5072730;28;20205;-65
2021/04/03 12:36:34;;;;;;;5.17;2.00;;;13.10;51.20;;;;;;5072903;28;20225;-64
2021/04/03 12:39:00;;;;;;;2.67;1.63;;;13.10;50.20;;;;;;5073105;28;20574;-65
2021/04/03 12:41:26;;;;;;;4.57;2.23;;;13.20;49.90;;;;;;5072763;28;20209;-64
2021/04/03 12:43:53;;;;;;;3.13;1.73;;;13.50;49.80;;;;;;5072541;28;20268;-64
2021/04/03 12:46:19;;;;;;;3.20;1.80;;;14.10;48.90;;;;;;5072417;28;20259;-64
2021/04/03 12:48:46;;;;;;;4.23;1.87;;;14.40;49.20;;;;;;5072467;28;20204;-64
2021/04/03 12:51:12;;;;;;;2.60;1.60;;;14.50;48.50;;;;;;5072616;28;20205;-64
2021/04/03 12:53:38;;;;;;;3.23;1.57;;;14.40;48.80;;;;;;5072273;28;20254;-66